createdAt,value
2018-12-29T00:01:15.240Z,5.97
2018-12-29T00:03:44.880Z,7.00
2018-12-29T00:06:14.531Z,6.03
2018-12-29T00:08:44.562Z,6.03
2018-12-29T00:11:14.630Z,4.13
2018-12-29T00:16:53.555Z,4.63
2018-12-29T00:19:42.136Z,4.97
2018-12-29T00:22:11.996Z,5.37
2018-12-29T00:24:41.642Z,6.93
2018-12-29T00:27:11.285Z,8.03
2018-12-29T00:30:00.011Z,8.37
2018-12-29T00:32:30.338Z,5.87
2018-12-29T00:34:59.990Z,8.40
2018-12-29T00:37:29.913Z,5.00
2018-12-29T00:39:59.667Z,5.33
2018-12-29T00:42:29.281Z,4.53
2018-12-29T00:45:02.726Z,6.07
2018-12-29T00:47:30.748Z,6.30
2018-12-29T00:50:01.343Z,5.87
2018-12-29T00:55:06.899Z,6.73
2018-12-29T00:57:36.576Z,7.27
2018-12-29T01:00:07.135Z,7.00
2018-12-29T01:02:36.981Z,7.13
2018-12-29T01:05:06.693Z,5.27
2018-12-29T01:07:36.337Z,5.13
2018-12-29T01:10:06.579Z,4.77
2018-12-29T01:12:36.265Z,5.03
2018-12-29T01:15:45.239Z,6.23
2018-12-29T01:18:14.925Z,9.53
2018-12-29T01:20:44.548Z,14.10
2018-12-29T01:23:14.454Z,10.80
2018-12-29T01:25:44.119Z,11.27
2018-12-29T01:28:13.973Z,10.30
2018-12-29T01:30:43.894Z,16.57
2018-12-29T01:33:14.216Z,8.97
2018-12-29T01:35:43.946Z,7.83
2018-12-29T01:38:13.594Z,10.80
2018-12-29T01:40:43.373Z,21.50
2018-12-29T01:43:13.491Z,9.67
2018-12-29T01:45:43.137Z,12.67
2018-12-29T01:48:12.773Z,10.37
2018-12-29T01:50:42.508Z,11.27
2018-12-29T01:53:12.154Z,9.73
2018-12-29T01:55:41.830Z,12.70
2018-12-29T01:58:11.728Z,7.70
2018-12-29T02:00:41.463Z,10.43
2018-12-29T02:03:11.138Z,6.90
2018-12-29T02:05:40.866Z,8.73
2018-12-29T02:08:10.511Z,13.27
2018-12-29T02:10:59.317Z,11.70
2018-12-29T02:13:28.992Z,10.23
2018-12-29T02:15:58.843Z,10.20
2018-12-29T02:18:28.749Z,13.10
2018-12-29T02:20:58.382Z,8.30
2018-12-29T02:23:28.043Z,9.00
2018-12-29T02:25:58.177Z,8.47
2018-12-29T02:28:27.810Z,13.07
2018-12-29T02:30:57.672Z,14.23
2018-12-29T02:33:27.425Z,13.33
2018-12-29T02:35:57.085Z,18.60
2018-12-29T02:38:26.699Z,11.57
2018-12-29T02:40:56.446Z,8.80
2018-12-29T02:43:26.251Z,18.13
2018-12-29T02:45:55.887Z,12.03
2018-12-29T02:48:25.712Z,45.70
2018-12-29T02:50:55.345Z,6.30
2018-12-29T02:53:24.984Z,35.27
2018-12-29T02:55:54.759Z,25.30
2018-12-29T02:58:24.399Z,22.63
2018-12-29T03:00:54.037Z,31.13
2018-12-29T03:03:23.805Z,16.23
2018-12-29T03:05:53.438Z,13.80
2018-12-29T03:08:23.068Z,30.47
2018-12-29T03:10:53.256Z,8.53
2018-12-29T03:13:22.898Z,17.13
2018-12-29T03:15:52.551Z,20.67
2018-12-29T03:18:22.342Z,22.60
2018-12-29T03:20:52.304Z,29.73
2018-12-29T03:23:23.325Z,19.63
2018-12-29T03:25:53.059Z,28.63
2018-12-29T03:28:24.960Z,34.40
2018-12-29T03:30:54.611Z,15.63
2018-12-29T03:33:24.402Z,54.97
2018-12-29T03:35:54.120Z,27.33
2018-12-29T03:41:13.547Z,14.23
2018-12-29T03:43:43.209Z,14.73
2018-12-29T03:46:24.958Z,16.77
2018-12-29T03:48:54.860Z,11.43
2018-12-29T03:51:24.501Z,27.93
2018-12-29T03:53:54.310Z,13.40
2018-12-29T03:56:23.939Z,18.93
2018-12-29T03:58:53.570Z,9.57
2018-12-29T04:01:23.438Z,16.30
2018-12-29T04:03:53.397Z,10.47
2018-12-29T04:06:23.137Z,27.57
2018-12-29T04:09:30.840Z,19.33
2018-12-29T04:12:00.761Z,10.17
2018-12-29T04:14:49.404Z,13.77
2018-12-29T04:17:19.035Z,11.93
2018-12-29T04:19:48.876Z,7.07
2018-12-29T04:22:18.830Z,9.63
2018-12-29T04:24:48.464Z,9.43
2018-12-29T04:27:18.112Z,8.37
2018-12-29T04:29:47.969Z,5.47
2018-12-29T04:32:17.596Z,5.00
2018-12-29T04:34:47.835Z,6.97
2018-12-29T04:37:17.794Z,4.30
2018-12-29T04:39:47.429Z,6.90
2018-12-29T04:42:17.065Z,6.23
2018-12-29T04:44:46.918Z,5.67
2018-12-29T04:47:16.672Z,5.30
2018-12-29T04:49:46.296Z,6.57
2018-12-29T04:52:16.456Z,3.23
2018-12-29T04:54:46.094Z,6.57
2018-12-29T04:57:15.765Z,5.57
2018-12-29T04:59:45.617Z,4.40
2018-12-29T05:02:15.286Z,6.33
2018-12-29T05:04:44.943Z,5.67
2018-12-29T05:07:14.745Z,7.00
2018-12-29T05:09:44.399Z,6.70
2018-12-29T05:12:14.027Z,5.53
2018-12-29T05:14:43.947Z,7.37
2018-12-29T05:17:13.581Z,8.53
2018-12-29T05:19:43.220Z,6.77
2018-12-29T05:22:13.278Z,7.63
2018-12-29T05:24:42.918Z,8.03
2018-12-29T05:27:12.572Z,8.93
2018-12-29T05:29:42.346Z,7.10
2018-12-29T05:32:11.981Z,7.40
2018-12-29T05:34:41.614Z,6.43
2018-12-29T05:37:11.740Z,7.27
2018-12-29T05:39:41.409Z,7.03
2018-12-29T05:42:11.057Z,8.90
2018-12-29T05:44:40.973Z,8.10
2018-12-29T05:47:10.628Z,8.40
2018-12-29T05:49:40.395Z,4.57
2018-12-29T05:52:10.711Z,8.93
2018-12-29T05:57:49.307Z,8.60
2018-12-29T06:00:18.955Z,10.77
2018-12-29T06:02:48.587Z,8.23
2018-12-29T06:05:18.349Z,3.93
2018-12-29T06:07:47.984Z,8.80
2018-12-29T06:10:17.632Z,2.33
2018-12-29T06:12:47.490Z,8.47
2018-12-29T06:15:17.116Z,10.83
2018-12-29T06:17:46.742Z,8.60
2018-12-29T06:20:16.633Z,9.97
2018-12-29T06:22:46.435Z,6.77
2018-12-29T06:25:16.078Z,9.43
2018-12-29T06:30:21.206Z,10.80
2018-12-29T06:32:50.883Z,11.70
2018-12-29T06:35:20.518Z,9.70
2018-12-29T06:37:50.643Z,11.43
2018-12-29T06:40:20.320Z,10.80
2018-12-29T06:42:49.955Z,8.80
2018-12-29T06:45:19.773Z,9.43
2018-12-29T06:47:49.434Z,9.53
2018-12-29T06:50:19.056Z,10.63
2018-12-29T06:52:48.957Z,9.93
2018-12-29T06:55:18.614Z,10.47
2018-12-29T06:57:48.251Z,7.17
2018-12-29T07:00:18.009Z,11.90
2018-12-29T07:02:47.659Z,10.27
2018-12-29T07:05:17.290Z,10.37
2018-12-29T07:07:47.017Z,10.97
2018-12-29T07:10:16.727Z,9.80
2018-12-29T07:12:46.378Z,10.57
2018-12-29T07:15:35.014Z,9.57
2018-12-29T07:18:04.661Z,13.13
2018-12-29T07:20:34.323Z,11.70
2018-12-29T07:23:04.359Z,12.13
2018-12-29T07:25:33.992Z,12.80
2018-12-29T07:28:03.637Z,10.07
2018-12-29T07:30:33.483Z,13.87
2018-12-29T07:33:10.884Z,11.77
2018-12-29T07:35:40.660Z,11.47
2018-12-29T07:38:10.379Z,11.37
2018-12-29T07:40:40.048Z,10.10
2018-12-29T07:43:09.816Z,27.27
2018-12-29T07:45:39.548Z,11.80
2018-12-29T07:48:09.208Z,13.43
2018-12-29T07:50:39.052Z,13.80
2018-12-29T07:53:08.967Z,14.33
2018-12-29T07:55:38.697Z,12.00
2018-12-29T07:58:08.628Z,11.57
2018-12-29T08:00:38.290Z,12.70
2018-12-29T08:03:07.974Z,9.60
2018-12-29T08:05:39.853Z,14.10
2018-12-29T08:08:09.662Z,10.30
2018-12-29T08:10:39.569Z,15.70
2018-12-29T08:13:09.232Z,12.60
2018-12-29T08:15:38.881Z,8.17
2018-12-29T08:18:08.688Z,12.10
2018-12-29T08:20:38.366Z,10.80
2018-12-29T08:23:08.160Z,12.97
2018-12-29T08:25:37.799Z,7.40
2018-12-29T08:28:07.444Z,11.07
2018-12-29T08:30:37.164Z,9.40
2018-12-29T08:33:06.815Z,8.97
2018-12-29T08:35:36.499Z,12.83
2018-12-29T08:38:06.368Z,15.00
2018-12-29T08:40:36.101Z,7.50
2018-12-29T08:43:05.808Z,13.63
2018-12-29T08:45:35.527Z,11.37
2018-12-29T08:48:05.162Z,7.73
2018-12-29T08:50:34.862Z,12.57
2018-12-29T08:53:04.630Z,9.13
2018-12-29T08:55:34.399Z,11.67
2018-12-29T08:58:04.200Z,3.20
2018-12-29T09:00:34.026Z,6.67
2018-12-29T09:03:03.655Z,10.13
2018-12-29T09:05:33.646Z,8.80
2018-12-29T09:08:03.384Z,10.13
2018-12-29T09:10:33.010Z,9.53
2018-12-29T09:13:02.757Z,10.13
2018-12-29T09:15:32.627Z,10.73
2018-12-29T09:18:02.275Z,8.87
2018-12-29T09:20:31.955Z,8.20
2018-12-29T09:23:02.109Z,8.67
2018-12-29T09:25:31.718Z,9.23
2018-12-29T09:28:20.553Z,7.13
2018-12-29T09:30:50.187Z,10.87
2018-12-29T09:33:19.821Z,12.00
2018-12-29T09:35:49.551Z,11.10
2018-12-29T09:38:19.170Z,8.27
2018-12-29T09:40:49.071Z,10.90
2018-12-29T09:43:18.845Z,8.33
2018-12-29T09:45:48.497Z,10.57
2018-12-29T09:48:18.160Z,9.10
2018-12-29T09:50:47.927Z,10.27
2018-12-29T09:53:17.553Z,8.67
2018-12-29T09:55:47.209Z,8.23
2018-12-29T09:58:17.101Z,8.10
2018-12-29T10:00:46.785Z,10.60
2018-12-29T10:03:16.448Z,11.23
2018-12-29T10:05:46.409Z,10.30
2018-12-29T10:08:16.028Z,8.10
2018-12-29T10:10:45.831Z,8.30
2018-12-29T10:13:15.724Z,8.53
2018-12-29T10:15:45.381Z,7.93
2018-12-29T10:18:15.053Z,6.73
2018-12-29T10:20:44.981Z,6.97
2018-12-29T10:23:14.678Z,8.47
2018-12-29T10:25:44.668Z,8.17
2018-12-29T10:28:14.577Z,6.43
2018-12-29T10:30:44.284Z,7.80
2018-12-29T10:33:13.904Z,6.97
2018-12-29T10:35:43.827Z,6.77
2018-12-29T10:38:13.489Z,4.70
2018-12-29T10:40:43.123Z,7.17
2018-12-29T10:43:13.043Z,6.30
2018-12-29T10:45:42.707Z,5.50
2018-12-29T10:48:12.349Z,6.60
2018-12-29T10:50:42.231Z,6.70
2018-12-29T10:53:11.992Z,5.73
2018-12-29T10:55:41.894Z,7.63
2018-12-29T10:58:11.718Z,6.20
2018-12-29T11:00:41.467Z,6.03
2018-12-29T11:03:11.161Z,5.40
2018-12-29T11:05:41.032Z,5.47
2018-12-29T11:08:10.667Z,5.70
2018-12-29T11:10:40.321Z,5.70
2018-12-29T11:13:12.717Z,3.67
2018-12-29T11:15:42.352Z,5.90
2018-12-29T11:18:11.969Z,5.97
2018-12-29T11:20:41.825Z,5.47
2018-12-29T11:23:11.457Z,8.07
2018-12-29T11:25:41.071Z,7.23
2018-12-29T11:30:47.734Z,8.43
2018-12-29T11:33:18.321Z,9.37
2018-12-29T11:35:48.218Z,7.73
2018-12-29T11:38:17.893Z,7.23
2018-12-29T11:40:47.586Z,6.53
2018-12-29T11:43:17.438Z,7.70
2018-12-29T11:45:47.083Z,7.40
2018-12-29T11:48:16.796Z,6.83
2018-12-29T11:50:46.597Z,8.10
2018-12-29T11:53:16.254Z,7.70
2018-12-29T11:55:47.768Z,7.27
2018-12-29T11:58:17.400Z,8.33
2018-12-29T12:00:47.039Z,8.90
2018-12-29T12:03:28.074Z,9.00
2018-12-29T12:05:57.699Z,9.17
2018-12-29T12:08:27.335Z,8.70
2018-12-29T12:10:57.132Z,9.30
2018-12-29T12:13:26.782Z,9.77
2018-12-29T12:15:56.485Z,8.67
2018-12-29T12:18:26.253Z,10.17
2018-12-29T12:20:55.899Z,8.73
2018-12-29T12:23:25.539Z,10.17
2018-12-29T12:28:44.017Z,12.40
2018-12-29T12:31:13.664Z,9.50
2018-12-29T12:33:43.302Z,10.03
2018-12-29T12:36:13.017Z,11.33
2018-12-29T12:38:42.696Z,11.77
2018-12-29T12:41:12.324Z,11.67
2018-12-29T12:43:42.071Z,14.40
2018-12-29T12:46:13.479Z,12.80
2018-12-29T12:48:43.217Z,12.93
2018-12-29T12:51:12.843Z,15.63
2018-12-29T12:53:42.530Z,11.77
2018-12-29T12:56:12.410Z,12.77
2018-12-29T12:58:42.064Z,14.53
2018-12-29T13:01:13.707Z,13.17
2018-12-29T13:03:43.347Z,11.97
2018-12-29T13:06:13.093Z,15.73
2018-12-29T13:08:43.011Z,13.47
2018-12-29T13:11:12.649Z,13.33
2018-12-29T13:16:32.652Z,12.97
2018-12-29T13:19:02.285Z,16.23
2018-12-29T13:21:31.912Z,15.73
2018-12-29T13:24:01.857Z,14.23
2018-12-29T13:26:31.506Z,14.80
2018-12-29T13:29:03.567Z,11.93
2018-12-29T13:31:33.239Z,14.50
2018-12-29T13:34:02.896Z,8.70
2018-12-29T13:36:52.613Z,12.67
2018-12-29T13:39:22.261Z,10.70
2018-12-29T13:41:53.719Z,13.90
2018-12-29T13:44:23.391Z,8.60
2018-12-29T13:46:53.114Z,12.67
2018-12-29T13:49:22.899Z,17.07
2018-12-29T13:51:52.918Z,14.37
2018-12-29T13:54:22.538Z,13.30
2018-12-29T13:59:40.869Z,16.57
2018-12-29T14:02:29.290Z,15.90
2018-12-29T14:04:59.039Z,15.57
2018-12-29T14:07:28.829Z,16.30
2018-12-29T14:10:00.359Z,16.00
2018-12-29T14:12:30.023Z,18.50
2018-12-29T14:14:59.753Z,13.43
2018-12-29T14:17:29.654Z,12.10
2018-12-29T14:19:59.354Z,12.10
2018-12-29T14:22:29.317Z,10.43
2018-12-29T14:24:59.180Z,12.30
2018-12-29T14:27:28.892Z,13.90
2018-12-29T14:29:58.683Z,11.87
2018-12-29T14:32:30.119Z,13.87
2018-12-29T14:34:59.844Z,12.43
2018-12-29T14:37:29.536Z,15.40
2018-12-29T14:39:59.393Z,14.10
2018-12-29T14:42:29.081Z,15.77
2018-12-29T14:48:13.916Z,15.80
2018-12-29T14:50:43.557Z,13.90
2018-12-29T14:53:13.179Z,14.30
2018-12-29T14:55:43.013Z,14.30
2018-12-29T14:58:12.991Z,13.47
2018-12-29T15:01:03.855Z,15.27
2018-12-29T15:03:33.518Z,15.90
2018-12-29T15:06:03.147Z,14.67
2018-12-29T15:08:33.172Z,14.23
2018-12-29T15:11:02.793Z,15.03
2018-12-29T15:13:34.352Z,14.03
2018-12-29T15:16:04.096Z,16.83
2018-12-29T15:18:33.818Z,16.37
2018-12-29T15:21:04.168Z,16.90
2018-12-29T15:23:33.984Z,16.40
2018-12-29T15:26:03.817Z,17.80
2018-12-29T15:28:33.688Z,16.37
2018-12-29T15:31:03.529Z,16.77
2018-12-29T15:33:35.125Z,15.93
2018-12-29T15:36:04.749Z,21.10
2018-12-29T15:38:34.477Z,17.77
2018-12-29T15:41:04.213Z,18.20
2018-12-29T15:43:33.837Z,17.03
2018-12-29T15:46:03.657Z,18.33
2018-12-29T15:48:35.202Z,16.60
2018-12-29T15:51:04.839Z,17.70
2018-12-29T15:53:34.548Z,16.50
2018-12-29T15:56:23.346Z,16.77
2018-12-29T15:58:52.986Z,14.73
2018-12-29T16:01:24.443Z,18.80
2018-12-29T16:03:54.103Z,15.27
2018-12-29T16:08:59.973Z,17.70
2018-12-29T16:11:29.920Z,15.50
2018-12-29T16:13:59.564Z,19.73
2018-12-29T16:16:29.383Z,16.57
2018-12-29T16:18:59.645Z,19.27
2018-12-29T16:21:30.495Z,20.73
2018-12-29T16:24:00.242Z,17.00
2018-12-29T16:26:29.978Z,19.37
2018-12-29T16:28:59.799Z,20.43
2018-12-29T16:31:48.901Z,17.30
2018-12-29T16:34:18.641Z,15.63
2018-12-29T16:36:48.403Z,16.57
2018-12-29T16:39:18.068Z,16.20
2018-12-29T16:42:06.591Z,16.13
2018-12-29T16:44:36.734Z,15.80
2018-12-29T16:47:06.568Z,16.20
2018-12-29T16:49:38.741Z,17.37
2018-12-29T16:52:08.522Z,17.40
2018-12-29T16:54:57.082Z,17.37
2018-12-29T16:57:26.785Z,17.20
2018-12-29T17:03:05.556Z,17.20
2018-12-29T17:05:37.206Z,17.40
2018-12-29T17:08:07.128Z,20.10
2018-12-29T17:10:36.938Z,18.73
2018-12-29T17:13:06.585Z,18.40
2018-12-29T17:15:36.462Z,20.80
2018-12-29T17:18:06.422Z,19.60
2018-12-29T17:23:24.959Z,25.93
2018-12-29T17:25:54.683Z,22.10
2018-12-29T17:28:26.165Z,20.97
2018-12-29T17:30:55.862Z,19.23
2018-12-29T17:33:25.812Z,22.27
2018-12-29T17:35:55.574Z,17.97
2018-12-29T17:38:27.708Z,18.60
2018-12-29T17:40:57.624Z,20.43
2018-12-29T17:43:27.306Z,23.00
2018-12-29T17:46:15.973Z,22.43
2018-12-29T17:48:45.665Z,20.43
2018-12-29T17:51:15.418Z,19.53
2018-12-29T17:53:48.072Z,21.33
2018-12-29T17:56:16.801Z,19.93
2018-12-29T17:58:46.574Z,21.50
2018-12-29T18:01:18.631Z,22.43
2018-12-29T18:03:48.574Z,20.07
2018-12-29T18:06:18.295Z,21.20
2018-12-29T18:08:48.241Z,22.10
2018-12-29T18:11:18.142Z,20.60
2018-12-29T18:13:47.782Z,24.17
2018-12-29T18:16:17.857Z,23.63
2018-12-29T18:18:47.730Z,22.37
2018-12-29T18:21:17.551Z,20.50
2018-12-29T18:23:47.237Z,23.23
2018-12-29T18:26:36.647Z,23.37
2018-12-29T18:29:08.064Z,23.67
2018-12-29T18:31:37.987Z,23.20
2018-12-29T18:34:18.860Z,22.27
2018-12-29T18:36:49.289Z,17.87
2018-12-29T18:42:07.647Z,18.17
2018-12-29T18:44:37.304Z,21.77
2018-12-29T18:47:06.943Z,21.10
2018-12-29T18:49:38.701Z,19.00
2018-12-29T18:54:57.090Z,21.07
2018-12-29T18:57:26.745Z,19.90
2018-12-29T18:59:56.391Z,19.93
2018-12-29T19:02:26.207Z,22.53
2018-12-29T19:07:44.543Z,23.63
2018-12-29T19:10:14.218Z,18.00
2018-12-29T19:13:03.022Z,22.10
2018-12-29T19:15:32.669Z,22.00
2018-12-29T19:20:52.913Z,21.47
2018-12-29T19:23:24.296Z,24.30
2018-12-29T19:25:55.863Z,24.90
2018-12-29T19:28:27.203Z,23.53
2018-12-29T19:30:57.149Z,25.87
2018-12-29T19:33:28.525Z,25.67
2018-12-29T19:36:00.121Z,25.30
2018-12-29T19:38:30.005Z,25.77
2018-12-29T19:40:59.673Z,28.37
2018-12-29T19:43:50.369Z,64.53
2018-12-29T19:49:29.516Z,31.83
2018-12-29T19:51:59.175Z,34.30
2018-12-29T19:54:49.731Z,41.70
2018-12-29T19:57:21.127Z,48.93
2018-12-29T19:59:50.989Z,29.20
2018-12-29T20:02:41.183Z,32.77
2018-12-29T20:05:11.389Z,52.27
2018-12-29T20:07:41.046Z,50.47
2018-12-29T20:10:10.729Z,53.97
2018-12-29T20:12:40.516Z,39.23
2018-12-29T20:15:10.374Z,38.63
2018-12-29T20:17:59.290Z,27.50
2018-12-29T20:20:28.931Z,25.50
2018-12-29T20:22:58.694Z,56.53
2018-12-29T20:25:28.615Z,58.53
2018-12-29T20:27:58.288Z,82.40
2018-12-29T20:30:28.092Z,35.90
2018-12-29T20:32:59.074Z,134.40
2018-12-29T20:35:29.259Z,71.87
2018-12-29T20:37:59.420Z,194.57
2018-12-29T20:40:29.206Z,130.73
2018-12-29T20:42:58.856Z,130.60
2018-12-29T20:45:28.848Z,48.43
2018-12-29T20:47:58.523Z,37.80
2018-12-29T20:50:28.345Z,74.00
2018-12-29T20:52:58.877Z,64.60
2018-12-29T20:55:28.667Z,88.83
2018-12-29T20:58:17.477Z,53.87
2018-12-29T21:00:47.355Z,209.60
2018-12-29T21:03:17.022Z,77.80
2018-12-29T21:05:47.209Z,105.17
2018-12-29T21:08:16.880Z,47.27
2018-12-29T21:10:46.564Z,42.37
2018-12-29T21:16:11.654Z,49.17
2018-12-29T21:18:41.340Z,82.27
2018-12-29T21:21:10.999Z,76.80
2018-12-29T21:24:00.225Z,109.33
2018-12-29T21:26:29.873Z,126.23
2018-12-29T21:28:59.511Z,73.13
2018-12-29T21:31:48.352Z,80.87
2018-12-29T21:34:18.005Z,48.63
2018-12-29T21:36:47.659Z,123.93
2018-12-29T21:42:08.431Z,129.33
2018-12-29T21:44:38.129Z,173.80
2018-12-29T21:47:07.790Z,48.77
2018-12-29T21:49:37.673Z,67.57
2018-12-29T21:52:08.388Z,136.47
2018-12-29T21:57:46.903Z,125.10
2018-12-29T22:00:35.362Z,111.57
2018-12-29T22:03:05.164Z,102.03
2018-12-29T22:05:34.805Z,103.33
2018-12-29T22:10:54.882Z,130.47
2018-12-29T22:16:16.341Z,78.43
2018-12-29T22:18:46.009Z,84.43
2018-12-29T22:21:15.677Z,118.27
2018-12-29T22:23:45.568Z,93.20
2018-12-29T22:26:15.231Z,107.70
2018-12-29T22:28:44.881Z,64.07
2018-12-29T22:31:14.879Z,43.53
2018-12-29T22:33:44.530Z,51.83
2018-12-29T22:36:14.169Z,41.30
2018-12-29T22:38:43.985Z,38.43
2018-12-29T22:41:13.666Z,41.97
2018-12-29T22:43:43.851Z,35.87
2018-12-29T22:46:13.778Z,47.20
2018-12-29T22:48:43.425Z,58.57
2018-12-29T22:51:13.095Z,50.47
2018-12-29T22:53:43.825Z,40.33
2018-12-29T22:56:13.466Z,36.47
2018-12-29T22:59:02.735Z,37.07
2018-12-29T23:01:32.485Z,41.67
2018-12-29T23:04:02.152Z,32.47
2018-12-29T23:06:32.078Z,31.80
2018-12-29T23:09:01.909Z,35.97
2018-12-29T23:11:31.580Z,23.03
2018-12-29T23:14:01.453Z,30.70
2018-12-29T23:16:31.219Z,36.93
2018-12-29T23:19:02.839Z,29.47
2018-12-29T23:22:11.737Z,35.37
2018-12-29T23:24:41.608Z,40.70
2018-12-29T23:27:11.249Z,52.57
2018-12-29T23:30:00.665Z,50.30
2018-12-29T23:32:31.267Z,42.07
2018-12-29T23:35:01.077Z,55.17
2018-12-29T23:37:32.328Z,54.27
2018-12-29T23:40:02.577Z,60.17
2018-12-29T23:42:32.233Z,66.50
2018-12-29T23:45:02.191Z,53.13
2018-12-29T23:47:33.735Z,52.57
2018-12-29T23:50:03.454Z,36.70
2018-12-29T23:52:52.266Z,37.67
2018-12-29T23:55:23.679Z,47.20
2018-12-29T23:57:53.410Z,46.87
